Marstons Mills, MA

12:03 PM EDT on March 27, 2015 (GMT -0400)
Cape Cod Airport | | Change Station
CLOSE
Current Station
Personal Weather Station
Location: Barnstable Town, MA
Elevation: 82 ft
Nearby Weather Stations

Elev 82 ft 41.69 °N, 70.43 °W | Updated 10 seconds ago

Overcast
Overcast
39.0 °F
Feels Like 37 °F
N
3.4
Wind Variable Wind from North
Gusts 7.6 mph

Today
High -- | Low -- °F
--% Chance of Precip.
Yesterday
High -- | Low -- °F
Precip. -- in
6:33 AM 7:01 PM
First Quarter, 53% visible
Pressure 29.69 in
Visibility 10.0 miles
Clouds Overcast 500 ft
Windchill 37 °F
Dew Point 38 °F
Humidity 98%
Rainfall 0.38 in
Snow Depth Not available.
UV 2 out of 12
Pollen 2.80 out of 12
Air Quality Not available.
Flu Activity Not available.
METAR KFMH 271555Z AUTO 02009KT 10SM OVC005 04/03 A2969 RMK AO2

More Conditions Fewer Conditions

Pressure 29.69 in
Visibility 10.0 miles
Clouds Overcast 500 ft
Windchill 37 °F
Dew Point 38 °F
Humidity 98%
Rainfall 0.38 in
Snow Depth Not available.
UV 2 out of 12
Pollen 2.80 out of 12
Air Quality Not available.
Flu Activity Not available.
METAR KFMH 271555Z AUTO 02009KT 10SM OVC005 04/03 A2969 RMK AO2

More Conditions Fewer Conditions

10-Day Weather Forecast

Almanac

Astronomy

Mar. 27, 2015 Rise Set
Actual Time
Civil Twilight
Nautical Twilight
Astronomical Twilight
Moon
Length of Visible Light
Length of Day
Tomorrow will be .
, % of the Moon is Illuminated

Today's Extremes

State Highs State Lows

Community

WunderPhotos

Upload Photos

1,808,766 photos uploaded!

WunderBlogs® & News

Nearby

Air Quality

  Air Quality AQ Index Pollutant
Not available.

Snow Depth

Station Depth Elevation

Earthquake Activity

City Distance Mag. Time & Date
Minimum magnitude displayed is 2.5.

Coastal Water Temperatures

Place Temperature

Stations

Nearby Weather Stations

Station Location Temp. Windchill Dew Point Humidity Wind Precip. Elev Updated Type